Time;durP1;ratioP1;P1;durP2;ratioP2;P2;SDS_P1;SDS_P2;PMS_P1;PMS_P2;Temp;Humidity;BMP_temperature;BMP_pressure;BME280_temperature;BME280_humidity;BME280_pressure;Samples;Min_cycle;Max_cycle;Signal;HPM_P1;HPM_P2
2022/06/14 00:00:53;;;;;;;11.80;4.15;;;14.70;99.90;;;;;;5047001;28;20120;-80
2022/06/14 00:02:27;;;;;;;16.15;4.32;;;14.60;99.90;;;;;;5046246;28;20140;-80
2022/06/14 00:04:55;;;;;;;14.00;4.45;;;14.60;99.90;;;;;;5047034;28;20045;-80
2022/06/14 00:07:22;;;;;;;17.83;5.00;;;14.50;99.90;;;;;;5037824;28;20037;-80
2022/06/14 00:09:49;;;;;;;19.50;4.75;;;14.50;99.90;;;;;;5048282;28;20071;-80
2022/06/14 00:12:17;;;;;;;13.77;4.32;;;14.40;99.90;;;;;;5049200;28;20048;-80
2022/06/14 00:14:44;;;;;;;17.30;4.57;;;14.40;99.90;;;;;;5047274;28;20049;-80
2022/06/14 00:17:11;;;;;;;14.80;3.90;;;14.40;99.90;;;;;;5049382;28;20136;-80
2022/06/14 00:19:40;;;;;;;16.40;4.28;;;14.40;99.90;;;;;;5046876;28;20049;-80
2022/06/14 00:22:08;;;;;;;17.27;4.47;;;14.30;99.90;;;;;;5050496;28;20057;-80
2022/06/14 00:24:35;;;;;;;17.85;5.18;;;14.30;99.90;;;;;;5050353;28;20130;-80
2022/06/14 00:27:03;;;;;;;12.90;5.22;;;14.30;99.90;;;;;;5050411;28;20057;-79
2022/06/14 00:29:31;;;;;;;15.73;5.07;;;14.30;99.90;;;;;;5048921;28;20052;-80
2022/06/14 00:31:58;;;;;;;15.05;4.55;;;14.20;99.90;;;;;;5048100;28;20128;-80
2022/06/14 00:34:26;;;;;;;14.82;4.35;;;14.20;99.90;;;;;;5048761;28;20049;-80
2022/06/14 00:36:56;;;;;;;18.10;4.78;;;14.20;99.90;;;;;;5047993;28;20501;-80
2022/06/14 00:39:24;;;;;;;44.65;7.53;;;14.20;99.90;;;;;;5049921;28;20059;-80
2022/06/14 00:41:54;;;;;;;37.03;6.50;;;14.10;99.90;;;;;;5049107;28;20088;-80
2022/06/14 00:44:25;;;;;;;60.70;8.45;;;14.20;99.90;;;;;;5032220;28;20051;-79
2022/06/14 00:46:59;;;;;;;40.63;8.50;;;14.20;99.90;;;;;;5041689;28;20095;-79
2022/06/14 00:49:32;;;;;;;33.22;5.97;;;14.30;99.90;;;;;;5049938;28;20496;-80
2022/06/14 00:52:02;;;;;;;;;;;14.30;99.90;;;;;;5050469;28;20045;-80
2022/06/14 00:54:35;;;;;;;18.13;5.53;;;14.40;99.90;;;;;;5053624;28;19928;-80
2022/06/14 00:57:09;;;;;;;21.92;6.57;;;14.40;99.90;;;;;;5051310;28;20061;-80
2022/06/14 00:59:43;;;;;;;15.00;5.28;;;14.40;99.90;;;;;;5053312;28;20057;-80
2022/06/14 01:02:14;;;;;;;14.60;6.05;;;14.40;99.90;;;;;;5051319;28;20064;-80
2022/06/14 01:04:43;;;;;;;22.30;5.23;;;14.30;99.90;;;;;;5051018;28;20041;-80
2022/06/14 01:07:17;;;;;;;12.05;5.03;;;14.30;99.90;;;;;;5053093;28;20060;-80
2022/06/14 01:09:48;;;;;;;17.67;4.60;;;14.40;99.90;;;;;;5051331;28;20136;-78
2022/06/14 01:12:17;;;;;;;14.55;5.82;;;14.40;99.90;;;;;;5053725;28;20110;-79
2022/06/14 01:14:53;;;;;;;16.33;6.55;;;14.40;99.90;;;;;;5046611;28;20080;-79
2022/06/14 01:17:21;;;;;;;28.60;6.97;;;14.40;99.90;;;;;;5053386;28;20564;-80
2022/06/14 01:19:49;;;;;;;38.63;8.60;;;14.40;99.90;;;;;;5051421;28;20091;-80
2022/06/14 01:22:26;;;;;;;48.50;8.98;;;14.50;99.90;;;;;;5051587;28;20089;-79
2022/06/14 01:24:54;;;;;;;25.98;7.72;;;14.40;99.90;;;;;;5049971;28;20559;-79
2022/06/14 01:27:24;;;;;;;33.88;7.78;;;14.40;99.90;;;;;;5051142;28;20040;-79
2022/06/14 01:30:04;;;;;;;23.02;7.05;;;14.40;99.90;;;;;;5051051;28;20060;-80
2022/06/14 01:32:34;;;;;;;23.20;6.70;;;14.50;99.90;;;;;;5051171;28;20532;-79
2022/06/14 01:35:07;;;;;;;30.65;7.50;;;14.40;99.90;;;;;;5034582;28;20063;-80
2022/06/14 01:37:36;;;;;;;;;;;14.50;99.90;;;;;;5048708;28;20053;-79
2022/06/14 01:40:06;;;;;;;22.85;7.05;;;14.50;99.90;;;;;;5045452;28;20035;-79
2022/06/14 01:42:44;;;;;;;24.15;9.25;;;14.50;99.90;;;;;;5051214;28;20403;-80
2022/06/14 01:45:23;;;;;;;17.80;7.03;;;14.50;99.90;;;;;;5051517;28;20075;-80
2022/06/14 01:47:58;;;;;;;24.23;7.30;;;14.50;99.90;;;;;;5031670;28;20417;-80
2022/06/14 01:53:31;;;;;;;41.05;8.60;;;14.60;99.90;;;;;;5047168;28;20059;-80
2022/06/14 01:56:07;;;;;;;45.20;8.23;;;14.50;99.90;;;;;;5049907;28;20081;-80
2022/06/14 01:58:44;;;;;;;45.45;8.98;;;14.60;99.90;;;;;;5052091;28;20370;-80
2022/06/14 02:01:18;;;;;;;58.45;9.52;;;14.60;99.90;;;;;;5048660;28;20072;-80
2022/06/14 02:06:41;;;;;;;39.58;8.30;;;14.70;99.90;;;;;;5051076;28;20060;-80
2022/06/14 02:09:17;;;;;;;59.33;10.23;;;14.70;99.90;;;;;;5046987;28;20057;-80
2022/06/14 02:11:45;;;;;;;70.55;10.35;;;14.70;99.90;;;;;;5036700;28;20053;-80
2022/06/14 02:14:20;;;;;;;78.43;10.50;;;14.80;99.90;;;;;;5026315;28;20416;-80
2022/06/14 02:16:54;;;;;;;59.75;9.88;;;14.80;99.90;;;;;;5050556;28;20049;-80
2022/06/14 02:19:34;;;;;;;54.28;9.15;;;14.80;99.90;;;;;;5049990;28;20045;-80
2022/06/14 02:22:07;;;;;;;45.83;9.25;;;14.90;99.90;;;;;;5051858;28;20051;-80
2022/06/14 02:24:42;;;;;;;57.33;9.43;;;14.90;99.90;;;;;;5049726;28;20414;-80
2022/06/14 02:27:15;;;;;;;35.85;8.18;;;15.00;99.90;;;;;;5052075;28;20053;-81
2022/06/14 02:29:45;;;;;;;;;;;15.00;99.90;;;;;;5050733;28;20045;-81
2022/06/14 02:32:18;;;;;;;36.08;7.78;;;15.00;99.90;;;;;;5051495;28;19935;-80
2022/06/14 02:34:46;;;;;;;;;;;15.00;99.90;;;;;;5051125;28;20343;-81
2022/06/14 02:37:18;;;;;;;51.38;9.82;;;15.00;99.90;;;;;;5065178;28;19979;-80
2022/06/14 02:39:50;;;;;;;73.82;9.98;;;15.00;99.90;;;;;;5047228;28;20140;-80
2022/06/14 02:42:22;;;;;;;63.22;8.63;;;15.00;99.90;;;;;;5040653;28;20087;-80
2022/06/14 02:44:53;;;;;;;56.40;8.93;;;15.00;99.90;;;;;;5050708;28;20053;-80
2022/06/14 02:47:27;;;;;;;45.67;8.13;;;15.00;99.90;;;;;;5050164;28;20540;-81
2022/06/14 02:50:02;;;;;;;54.05;8.13;;;15.10;99.90;;;;;;5046982;28;20049;-80
2022/06/14 02:52:34;;;;;;;41.80;8.30;;;15.20;99.90;;;;;;5032035;28;20041;-80
2022/06/14 02:55:19;;;;;;;38.10;9.07;;;15.30;99.90;;;;;;5050018;28;20143;-80
2022/06/14 02:57:53;;;;;;;42.80;8.13;;;15.30;99.90;;;;;;5030036;28;20531;-79
2022/06/14 03:00:25;;;;;;;29.83;6.95;;;15.30;99.90;;;;;;5051491;28;20057;-79
2022/06/14 03:03:00;;;;;;;29.08;6.97;;;15.40;99.90;;;;;;5050397;28;20544;-80
2022/06/14 03:05:34;;;;;;;29.10;7.28;;;15.40;99.90;;;;;;5048030;28;20446;-80
2022/06/14 03:08:09;;;;;;;31.90;6.60;;;15.50;99.90;;;;;;5030189;28;20058;-80
2022/06/14 03:10:45;;;;;;;24.25;6.85;;;15.50;99.90;;;;;;5012157;28;20491;-79
2022/06/14 03:13:32;;;;;;;25.92;7.30;;;15.60;99.90;;;;;;5034581;28;20041;-80
2022/06/14 03:16:07;;;;;;;19.88;6.40;;;15.70;99.90;;;;;;5046806;28;20520;-79
2022/06/14 03:18:44;;;;;;;10.68;6.35;;;15.70;99.90;;;;;;5050725;28;20055;-80
2022/06/14 03:21:17;;;;;;;10.15;5.93;;;15.80;99.90;;;;;;5048605;28;20057;-79
2022/06/14 03:23:50;;;;;;;11.52;6.15;;;15.90;99.90;;;;;;5033720;28;20048;-79
2022/06/14 03:26:25;;;;;;;10.75;5.95;;;16.00;99.90;;;;;;5033372;28;20056;-80
2022/06/14 03:28:57;;;;;;;12.05;6.13;;;16.00;99.90;;;;;;5029817;28;20057;-80
2022/06/14 03:31:30;;;;;;;15.23;6.63;;;16.10;99.90;;;;;;5031538;28;20132;-81
2022/06/14 03:34:02;;;;;;;16.92;6.28;;;16.20;99.90;;;;;;5036746;28;20057;-81
2022/06/14 03:36:30;;;;;;;26.95;6.50;;;16.20;99.90;;;;;;5031672;28;20049;-80
2022/06/14 03:39:04;;;;;;;21.58;6.55;;;16.20;99.90;;;;;;5049308;28;20417;-82
2022/06/14 03:41:39;;;;;;;15.73;6.50;;;16.30;99.90;;;;;;5049668;28;20053;-81
2022/06/14 03:44:07;;;;;;;18.48;6.00;;;16.30;99.90;;;;;;5045382;28;20140;-81
2022/06/14 03:46:38;;;;;;;11.45;5.97;;;16.40;99.90;;;;;;5048115;28;20147;-81
2022/06/14 03:49:12;;;;;;;13.15;5.18;;;16.50;99.90;;;;;;5050028;28;20057;-81
2022/06/14 03:51:52;;;;;;;17.00;5.80;;;16.50;99.90;;;;;;5048522;28;20505;-80
2022/06/14 03:54:46;;;;;;;13.68;6.03;;;16.60;99.90;;;;;;5028907;28;20056;-80
2022/06/14 03:57:34;;;;;;;12.75;5.50;;;16.70;99.90;;;;;;5029605;28;20064;-81
2022/06/14 04:00:13;;;;;;;10.70;5.25;;;16.70;99.90;;;;;;5040700;28;20053;-81
2022/06/14 04:02:56;;;;;;;13.07;5.22;;;16.80;99.90;;;;;;5035462;28;20055;-82
2022/06/14 04:05:35;;;;;;;14.18;6.97;;;16.90;99.90;;;;;;5030586;28;20046;-81
2022/06/14 04:08:10;;;;;;;15.32;6.65;;;17.00;99.90;;;;;;5016917;28;20079;-80
2022/06/14 04:10:41;;;;;;;10.60;5.05;;;17.10;99.90;;;;;;5047646;28;20655;-80
2022/06/14 04:13:19;;;;;;;13.30;6.07;;;17.20;99.90;;;;;;5049810;28;20539;-80
2022/06/14 04:15:49;;;;;;;11.93;4.95;;;17.40;99.90;;;;;;5048900;28;20056;-80
2022/06/14 04:18:38;;;;;;;13.05;4.90;;;17.50;99.90;;;;;;5048669;28;20486;-80
2022/06/14 04:21:13;;;;;;;11.52;4.88;;;17.60;99.90;;;;;;5041934;28;20515;-79
2022/06/14 04:23:48;;;;;;;12.63;5.53;;;17.70;99.90;;;;;;5048242;28;20636;-80
2022/06/14 04:26:22;;;;;;;9.50;4.55;;;17.80;99.90;;;;;;5050070;28;20076;-80
2022/06/14 04:28:55;;;;;;;12.80;4.88;;;17.90;99.90;;;;;;5050787;28;20045;-80
2022/06/14 04:31:29;;;;;;;16.67;4.78;;;18.00;99.90;;;;;;5054403;28;20049;-79
2022/06/14 04:34:08;;;;;;;8.80;4.32;;;18.10;99.90;;;;;;5030985;28;20052;-79
2022/06/14 04:36:40;;;;;;;12.25;3.72;;;18.30;99.90;;;;;;5032751;28;20057;-79
2022/06/14 04:39:16;;;;;;;6.05;3.45;;;18.30;99.90;;;;;;5046116;28;20052;-79
2022/06/14 04:41:48;;;;;;;10.75;3.63;;;18.30;99.90;;;;;;5048866;28;20072;-79
2022/06/14 04:44:22;;;;;;;6.93;3.80;;;18.40;99.90;;;;;;5057248;28;20424;-79
2022/06/14 04:46:54;;;;;;;10.63;3.97;;;18.50;99.90;;;;;;5052002;28;20413;-80
2022/06/14 04:49:27;;;;;;;7.88;4.00;;;18.50;99.90;;;;;;5044342;28;20049;-81
2022/06/14 04:52:00;;;;;;;15.60;6.72;;;18.50;99.90;;;;;;5052258;28;20049;-81
2022/06/14 04:54:34;;;;;;;19.40;6.38;;;18.50;99.90;;;;;;5051722;28;20140;-80
2022/06/14 04:57:09;;;;;;;14.80;5.95;;;18.50;99.90;;;;;;5051086;28;20048;-80
2022/06/14 04:59:45;;;;;;;10.25;5.90;;;18.50;99.90;;;;;;5035750;28;20544;-80
2022/06/14 05:02:18;;;;;;;17.98;6.32;;;18.40;99.90;;;;;;5051262;28;20106;-78
2022/06/14 05:04:49;;;;;;;12.40;5.93;;;18.40;99.90;;;;;;5053781;28;20048;-78
2022/06/14 05:07:24;;;;;;;12.85;6.05;;;18.50;99.90;;;;;;5049962;28;20102;-79
2022/06/14 05:09:57;;;;;;;16.77;7.50;;;18.50;99.90;;;;;;5053385;28;20056;-80
2022/06/14 05:12:29;;;;;;;11.57;6.60;;;18.60;99.90;;;;;;5051193;28;20111;-79
2022/06/14 05:15:06;;;;;;;19.42;6.38;;;18.60;99.90;;;;;;5049546;28;20049;-80
2022/06/14 05:17:41;;;;;;;15.88;6.63;;;18.50;99.90;;;;;;5035988;28;20138;-81
2022/06/14 05:20:14;;;;;;;15.02;6.75;;;18.60;99.90;;;;;;5032008;28;20056;-77
2022/06/14 05:22:49;;;;;;;14.15;6.93;;;18.70;99.90;;;;;;5032754;28;20123;-80
2022/06/14 05:25:16;;;;;;;14.48;6.72;;;18.80;99.90;;;;;;5046766;28;20053;-80
2022/06/14 05:27:55;;;;;;;20.40;6.50;;;18.90;99.90;;;;;;5049783;28;20052;-83
2022/06/14 05:30:38;;;;;;;17.98;6.38;;;19.00;99.90;;;;;;5063326;28;20080;-80
2022/06/14 05:33:21;;;;;;;13.43;6.45;;;19.10;99.90;;;;;;5051246;28;20148;-79
2022/06/14 05:35:57;;;;;;;14.07;6.65;;;19.10;99.90;;;;;;5042870;28;20171;-80
2022/06/14 05:38:41;;;;;;;16.48;7.00;;;19.10;99.90;;;;;;5047598;28;20049;-80
2022/06/14 05:41:16;;;;;;;15.85;6.30;;;19.20;99.90;;;;;;5049010;28;20144;-82
2022/06/14 05:43:48;;;;;;;14.75;6.50;;;19.10;99.90;;;;;;5037502;28;20095;-81
2022/06/14 05:46:25;;;;;;;16.10;6.25;;;19.20;99.90;;;;;;5036094;28;20060;-81
2022/06/14 05:48:58;;;;;;;14.52;6.47;;;19.20;99.90;;;;;;5041912;28;20536;-79
2022/06/14 05:51:31;;;;;;;14.05;5.53;;;19.20;99.90;;;;;;5042554;28;20091;-78
2022/06/14 05:54:04;;;;;;;13.27;5.78;;;19.10;99.90;;;;;;5044220;28;20044;-79
2022/06/14 05:56:43;;;;;;;13.38;5.75;;;19.10;99.90;;;;;;5050903;28;20110;-78
2022/06/14 05:59:21;;;;;;;16.50;6.68;;;19.10;99.90;;;;;;5051160;28;20040;-78
2022/06/14 06:01:58;;;;;;;12.50;4.50;;;19.20;99.90;;;;;;5049447;28;20084;-80
2022/06/14 06:04:31;;;;;;;13.85;5.13;;;19.30;99.90;;;;;;5052692;28;20049;-81
2022/06/14 06:07:04;;;;;;;9.38;4.38;;;19.30;99.90;;;;;;5049862;28;20098;-80
2022/06/14 06:09:37;;;;;;;7.22;3.78;;;19.40;99.90;;;;;;5043011;28;20057;-78
2022/06/14 06:12:12;;;;;;;10.10;4.47;;;19.60;99.90;;;;;;5042054;28;20041;-79
2022/06/14 06:14:46;;;;;;;12.75;5.03;;;19.70;99.90;;;;;;5034676;28;20138;-80
2022/06/14 06:17:20;;;;;;;9.55;4.22;;;19.80;99.90;;;;;;5046149;28;20056;-80
2022/06/14 06:19:55;;;;;;;8.30;5.10;;;19.80;99.90;;;;;;5048777;28;20049;-80
2022/06/14 06:22:29;;;;;;;10.55;4.70;;;19.90;99.90;;;;;;5041775;28;20420;-79
2022/06/14 06:25:00;;;;;;;16.23;6.28;;;20.00;99.90;;;;;;5043032;28;20052;-78
2022/06/14 06:27:33;;;;;;;15.93;5.57;;;20.20;99.90;;;;;;5061107;28;20548;-78
2022/06/14 06:30:09;;;;;;;10.32;5.38;;;20.40;99.90;;;;;;5044372;28;20230;-79
2022/06/14 06:32:38;;;;;;;11.30;5.72;;;20.50;99.90;;;;;;5043298;28;20051;-78
2022/06/14 06:35:06;;;;;;;14.77;5.55;;;20.60;99.90;;;;;;5043340;28;20073;-79
2022/06/14 06:37:38;;;;;;;20.73;6.18;;;20.60;99.90;;;;;;5043949;28;20081;-80
2022/06/14 06:40:09;;;;;;;9.68;5.05;;;20.70;99.90;;;;;;5044141;28;20045;-78
2022/06/14 06:42:40;;;;;;;11.90;6.13;;;20.80;99.90;;;;;;5040240;28;20051;-79
2022/06/14 06:45:10;;;;;;;9.98;5.65;;;20.90;99.90;;;;;;5045203;28;20136;-79
2022/06/14 06:47:42;;;;;;;13.07;5.47;;;21.20;99.90;;;;;;4985672;28;20052;-78
2022/06/14 06:50:24;;;;;;;9.15;4.57;;;21.40;99.90;;;;;;5034396;28;20052;-79
2022/06/14 06:52:57;;;;;;;12.27;5.72;;;21.70;99.90;;;;;;5050369;28;20057;-80
2022/06/14 06:55:33;;;;;;;12.15;5.20;;;22.00;99.90;;;;;;5060436;28;20607;-79
2022/06/14 06:58:04;;;;;;;9.48;4.85;;;22.30;99.90;;;;;;5039553;28;20727;-78
2022/06/14 07:00:34;;;;;;;11.52;5.47;;;22.40;99.90;;;;;;5043124;28;20546;-78
2022/06/14 07:03:10;;;;;;;11.45;5.30;;;22.60;99.90;;;;;;5047573;28;20049;-81
2022/06/14 07:05:37;;;;;;;10.55;4.13;;;22.60;99.90;;;;;;5046547;28;20542;-78
2022/06/14 07:08:11;;;;;;;9.45;4.05;;;22.50;99.90;;;;;;5043294;28;20573;-78
2022/06/14 07:10:43;;;;;;;10.35;3.70;;;22.80;99.90;;;;;;5033015;28;20049;-79
2022/06/14 07:13:18;;;;;;;7.22;3.20;;;22.90;99.90;;;;;;5027864;28;20423;-78
2022/06/14 07:15:51;;;;;;;11.57;3.60;;;23.00;99.90;;;;;;5028194;28;20078;-78
2022/06/14 07:18:25;;;;;;;7.30;3.28;;;23.30;99.90;;;;;;5036569;28;20044;-81
2022/06/14 07:20:58;;;;;;;11.27;4.50;;;23.40;99.90;;;;;;5042375;28;20147;-79
2022/06/14 07:23:38;;;;;;;10.13;3.92;;;23.30;99.90;;;;;;5042129;28;20088;-79
2022/06/14 07:26:12;;;;;;;8.80;3.58;;;23.20;98.30;;;;;;5036923;28;20140;-81
2022/06/14 07:28:48;;;;;;;8.00;3.50;;;23.10;97.90;;;;;;5043968;28;20052;-82
2022/06/14 07:31:22;;;;;;;12.10;3.65;;;23.10;97.20;;;;;;5042513;28;20144;-79
2022/06/14 07:33:50;;;;;;;7.63;3.13;;;23.10;99.10;;;;;;5026949;28;20473;-78
2022/06/14 07:36:25;;;;;;;9.07;3.20;;;23.20;97.10;;;;;;5025001;28;20054;-78
2022/06/14 07:39:00;;;;;;;6.15;3.15;;;23.10;99.00;;;;;;5035871;28;20052;-80
2022/06/14 07:41:37;;;;;;;9.75;3.10;;;23.10;96.20;;;;;;5046731;28;20111;-79
2022/06/14 07:44:15;;;;;;;6.07;2.85;;;22.90;97.50;;;;;;5046165;28;20056;-79
2022/06/14 07:46:55;;;;;;;6.20;2.72;;;22.60;97.90;;;;;;5040928;28;20053;-79
2022/06/14 07:49:33;;;;;;;7.63;2.90;;;22.50;99.50;;;;;;5035869;28;20145;-79
2022/06/14 07:52:10;;;;;;;6.03;2.97;;;22.30;99.90;;;;;;5034110;28;20076;-80
2022/06/14 07:54:43;;;;;;;6.72;3.28;;;22.00;99.90;;;;;;5039337;28;20045;-80
2022/06/14 07:57:15;;;;;;;10.00;3.22;;;22.00;99.90;;;;;;5040249;28;20088;-81
2022/06/14 07:59:46;;;;;;;;;;;22.00;99.90;;;;;;5028657;28;20505;-79
2022/06/14 08:02:21;;;;;;;8.27;2.42;;;22.20;99.90;;;;;;5039783;28;19931;-81
2022/06/14 08:04:56;;;;;;;3.35;1.90;;;22.40;99.90;;;;;;5034082;28;20041;-80
2022/06/14 08:07:26;;;;;;;12.23;2.83;;;22.80;99.90;;;;;;5038104;28;20053;-83
2022/06/14 08:10:00;;;;;;;9.65;3.95;;;23.10;98.20;;;;;;5036649;28;20481;-81
2022/06/14 08:12:36;;;;;;;7.55;3.00;;;23.50;97.80;;;;;;5039593;28;20048;-80
2022/06/14 08:15:08;;;;;;;4.63;2.25;;;23.80;97.90;;;;;;5048005;28;20084;-79
2022/06/14 08:17:42;;;;;;;7.25;2.30;;;23.80;93.50;;;;;;5045350;28;20049;-79
2022/06/14 08:20:21;;;;;;;10.15;2.58;;;23.60;94.30;;;;;;5047831;28;20140;-79
2022/06/14 08:22:54;;;;;;;9.35;3.88;;;23.60;94.60;;;;;;5047145;28;20041;-82
2022/06/14 08:25:27;;;;;;;7.40;3.20;;;23.50;93.60;;;;;;5046112;28;20558;-82
2022/06/14 08:27:58;;;;;;;6.30;2.28;;;23.60;92.70;;;;;;5047989;28;20405;-79
2022/06/14 08:30:31;;;;;;;7.05;2.13;;;23.50;93.70;;;;;;5046139;28;20099;-81
2022/06/14 08:33:04;;;;;;;9.77;2.20;;;23.60;93.40;;;;;;5045933;28;20056;-80
2022/06/14 08:35:37;;;;;;;7.20;2.65;;;23.50;93.20;;;;;;5042411;28;20091;-79
2022/06/14 08:38:12;;;;;;;15.85;2.70;;;23.50;93.80;;;;;;5043845;28;20087;-81
2022/06/14 08:41:06;;;;;;;5.45;1.48;;;23.40;93.30;;;;;;5047375;28;20049;-79
2022/06/14 08:43:40;;;;;;;9.90;2.53;;;23.40;90.80;;;;;;5047721;28;20048;-79
2022/06/14 08:46:21;;;;;;;8.43;2.40;;;23.40;91.40;;;;;;5045188;28;20056;-81
2022/06/14 08:49:06;;;;;;;6.28;1.83;;;23.30;92.30;;;;;;5045579;28;20068;-79
2022/06/14 08:51:41;;;;;;;10.98;2.40;;;23.20;90.40;;;;;;5047557;28;20145;-80
2022/06/14 08:54:45;;;;;;;9.40;2.10;;;23.20;91.60;;;;;;5043609;28;20063;-79
2022/06/14 08:57:32;;;;;;;8.32;2.97;;;22.80;90.70;;;;;;5042870;28;20049;-79
2022/06/14 09:00:09;;;;;;;5.30;2.13;;;22.60;91.90;;;;;;5041031;28;20056;-80
2022/06/14 09:03:21;;;;;;;10.45;2.90;;;22.40;91.90;;;;;;5032849;28;20141;-79
2022/06/14 09:06:02;;;;;;;5.38;2.22;;;22.20;93.70;;;;;;5039954;28;20058;-78
2022/06/14 09:09:05;;;;;;;8.27;2.90;;;22.30;94.70;;;;;;5047029;28;20057;-80
2022/06/14 09:12:07;;;;;;;7.78;2.45;;;22.40;95.20;;;;;;5038665;28;20126;-82
2022/06/14 09:15:18;;;;;;;7.32;2.20;;;22.30;95.20;;;;;;5035480;28;20065;-79
2022/06/14 09:18:13;;;;;;;3.75;2.13;;;22.20;93.80;;;;;;5057029;28;20056;-80
2022/06/14 09:20:48;;;;;;;6.53;2.30;;;22.20;94.40;;;;;;5020347;28;20458;-80
2022/06/14 09:23:37;;;;;;;5.80;2.83;;;22.20;95.50;;;;;;5029231;28;20046;-78
2022/06/14 09:26:32;;;;;;;5.70;2.25;;;22.30;94.90;;;;;;5038046;28;20076;-81
2022/06/14 09:29:36;;;;;;;5.65;2.28;;;22.20;96.50;;;;;;5036716;28;20382;-82
2022/06/14 09:33:09;;;;;;;4.45;2.42;;;22.20;94.70;;;;;;5033670;28;20084;-80
2022/06/14 09:35:49;;;;;;;5.03;2.17;;;22.10;95.30;;;;;;5045007;28;20053;-81
2022/06/14 09:38:40;;;;;;;7.13;3.35;;;22.10;94.30;;;;;;5028212;28;20493;-78
2022/06/14 09:41:18;;;;;;;13.07;2.45;;;22.10;95.30;;;;;;5042589;28;20518;-80
2022/06/14 09:44:24;;;;;;;6.50;2.55;;;22.00;96.00;;;;;;5033986;28;20056;-79
2022/06/14 09:47:21;;;;;;;8.05;3.60;;;22.20;96.10;;;;;;5045076;28;20041;-82
2022/06/14 09:50:30;;;;;;;6.13;2.70;;;22.20;95.30;;;;;;5030589;28;20044;-80
2022/06/14 09:53:49;;;;;;;6.65;2.35;;;22.10;94.90;;;;;;5047198;28;20123;-82
2022/06/14 09:56:42;;;;;;;22.30;12.63;;;22.10;95.70;;;;;;5043595;28;20045;-81
2022/06/14 09:59:36;;;;;;;4.93;2.72;;;22.20;95.70;;;;;;5042965;28;20051;-82
2022/06/14 10:02:13;;;;;;;15.48;2.45;;;22.40;96.70;;;;;;5047860;28;20139;-81
2022/06/14 10:05:12;;;;;;;6.90;2.33;;;22.60;95.30;;;;;;5047123;28;20059;-81
2022/06/14 10:08:24;;;;;;;2.42;2.10;;;22.60;93.70;;;;;;5039208;28;20045;-81
2022/06/14 10:11:13;;;;;;;6.38;2.92;;;22.40;93.40;;;;;;5043259;28;20048;-82
2022/06/14 10:13:55;;;;;;;7.05;2.58;;;22.30;93.90;;;;;;5048165;28;20057;-82
2022/06/14 10:16:42;;;;;;;7.53;2.20;;;22.20;93.70;;;;;;5046629;28;20045;-74
2022/06/14 10:19:31;;;;;;;5.82;2.42;;;22.20;93.60;;;;;;5044352;28;20071;-75
2022/06/14 10:22:16;;;;;;;6.20;2.55;;;22.20;93.40;;;;;;5046777;28;20049;-81
2022/06/14 10:24:58;;;;;;;8.23;2.00;;;22.30;94.00;;;;;;5040324;28;20116;-81
2022/06/14 10:30:38;;;;;;;6.18;2.13;;;22.10;92.30;;;;;;5043715;28;20045;-81
2022/06/14 10:33:30;;;;;;;6.78;2.50;;;22.10;92.60;;;;;;5038560;28;20048;-80
2022/06/14 10:36:12;;;;;;;15.27;2.83;;;22.10;92.10;;;;;;5045327;28;20075;-81
2022/06/14 10:39:12;;;;;;;8.35;2.70;;;22.20;93.30;;;;;;5042550;28;20072;-82
2022/06/14 10:41:44;;;;;;;6.88;2.97;;;22.20;93.80;;;;;;5040033;28;20071;-75
2022/06/14 10:44:19;;;;;;;4.07;2.33;;;22.30;93.30;;;;;;5036789;28;20052;-76
2022/06/14 10:46:55;;;;;;;8.93;2.45;;;22.30;92.40;;;;;;5042162;28;20045;-75
2022/06/14 10:49:59;;;;;;;6.22;3.58;;;22.20;93.40;;;;;;5038458;28;20107;-75
2022/06/14 10:52:43;;;;;;;6.32;2.60;;;22.20;94.20;;;;;;5042543;28;20055;-75
2022/06/14 10:55:30;;;;;;;6.38;2.13;;;22.10;94.30;;;;;;5039644;28;20500;-81
2022/06/14 10:58:16;;;;;;;7.05;2.55;;;22.10;94.70;;;;;;5035952;28;20408;-76
2022/06/14 11:00:52;;;;;;;7.30;2.05;;;22.20;94.30;;;;;;5038967;28;20041;-76
2022/06/14 11:03:34;;;;;;;7.38;2.70;;;22.20;94.50;;;;;;5041242;28;20756;-76
2022/06/14 11:06:29;;;;;;;7.90;2.40;;;22.10;95.10;;;;;;5038409;28;20057;-76
2022/06/14 11:09:11;;;;;;;3.00;2.00;;;22.00;94.70;;;;;;5041582;28;20067;-79
2022/06/14 11:12:00;;;;;;;11.07;2.80;;;21.90;94.60;;;;;;5038509;28;20049;-80
2022/06/14 11:14:34;;;;;;;9.13;2.60;;;21.90;94.70;;;;;;5045030;28;20048;-80
2022/06/14 11:17:29;;;;;;;4.47;2.85;;;21.90;95.00;;;;;;5039712;28;20088;-81
2022/06/14 11:20:22;;;;;;;5.78;2.55;;;21.80;94.80;;;;;;5044966;28;20512;-81
2022/06/14 11:22:59;;;;;;;6.43;2.25;;;21.90;94.40;;;;;;5038550;28;20044;-76
2022/06/14 11:25:37;;;;;;;5.95;2.55;;;21.80;94.80;;;;;;5029877;28;20144;-76
2022/06/14 11:28:14;;;;;;;6.45;2.17;;;21.80;96.10;;;;;;5042277;28;20045;-74
2022/06/14 11:30:48;;;;;;;6.90;2.65;;;21.80;94.50;;;;;;5034540;28;20053;-73
2022/06/14 11:33:26;;;;;;;8.35;2.78;;;21.70;95.80;;;;;;5044989;28;20136;-74
2022/06/14 11:36:09;;;;;;;10.00;2.40;;;21.60;96.80;;;;;;5041805;28;20422;-74
2022/06/14 11:39:03;;;;;;;6.53;2.20;;;21.60;95.80;;;;;;5044795;28;20049;-76
2022/06/14 11:41:37;;;;;;;4.70;2.00;;;21.60;96.10;;;;;;5036319;28;20060;-75
2022/06/14 11:44:38;;;;;;;3.75;2.00;;;21.60;96.50;;;;;;5044920;28;20735;-75
2022/06/14 11:47:15;;;;;;;6.40;2.15;;;21.60;96.20;;;;;;5034641;28;20068;-76
2022/06/14 11:49:51;;;;;;;5.65;2.53;;;21.80;96.40;;;;;;5056601;28;20103;-76
2022/06/14 11:52:32;;;;;;;3.70;2.45;;;21.90;97.50;;;;;;5032603;28;20053;-76
2022/06/14 11:55:14;;;;;;;4.18;2.30;;;22.00;96.60;;;;;;5033314;28;20090;-76
2022/06/14 11:57:50;;;;;;;7.07;3.67;;;22.10;97.80;;;;;;5058823;28;20526;-77
2022/06/14 12:00:27;;;;;;;5.85;2.78;;;22.20;96.60;;;;;;5045056;28;20049;-77
2022/06/14 12:02:59;;;;;;;5.78;2.63;;;22.20;97.20;;;;;;5039816;28;20045;-77
2022/06/14 12:05:43;;;;;;;6.25;3.20;;;22.30;96.00;;;;;;5042135;28;20060;-77
2022/06/14 12:08:27;;;;;;;4.25;2.88;;;22.30;96.00;;;;;;5039585;28;20056;-74
2022/06/14 12:11:03;;;;;;;5.45;2.60;;;22.00;96.50;;;;;;5037731;28;20275;-75
2022/06/14 12:14:08;;;;;;;4.97;2.25;;;21.80;97.90;;;;;;5038694;28;20041;-77
2022/06/14 12:16:39;;;;;;;3.22;2.22;;;21.60;98.40;;;;;;5033765;28;20073;-77
2022/06/14 12:19:09;;;;;;;6.63;2.80;;;21.50;99.00;;;;;;5043005;28;20048;-76
2022/06/14 12:21:44;;;;;;;6.85;3.03;;;21.40;99.40;;;;;;5042623;28;20138;-77
2022/06/14 12:24:17;;;;;;;4.43;2.70;;;21.30;99.90;;;;;;5031527;28;20076;-77
2022/06/14 12:26:52;;;;;;;4.07;2.63;;;21.20;99.90;;;;;;5037215;28;20334;-76
2022/06/14 12:29:23;;;;;;;6.40;2.80;;;21.20;99.90;;;;;;5041166;28;20045;-77
2022/06/14 12:32:05;;;;;;;7.03;3.55;;;21.20;99.90;;;;;;5031635;28;20421;-77
2022/06/14 12:34:38;;;;;;;7.15;2.92;;;21.10;99.90;;;;;;5053850;28;20088;-80
2022/06/14 12:37:28;;;;;;;6.95;2.63;;;21.20;99.90;;;;;;5029193;28;20136;-79
2022/06/14 12:40:02;;;;;;;3.95;2.67;;;21.10;99.90;;;;;;5039393;28;20061;-80
2022/06/14 12:42:41;;;;;;;4.93;2.80;;;21.20;99.90;;;;;;5042541;28;20053;-78
2022/06/14 12:45:13;;;;;;;4.82;2.75;;;21.00;99.90;;;;;;5041592;28;20365;-79
2022/06/14 12:47:51;;;;;;;9.68;3.13;;;20.90;99.90;;;;;;5043994;28;20045;-78
2022/06/14 12:50:25;;;;;;;6.50;3.63;;;20.90;99.90;;;;;;5050625;28;20040;-77
2022/06/14 12:52:56;;;;;;;5.78;3.15;;;20.90;99.90;;;;;;5043856;28;20133;-78
2022/06/14 12:55:28;;;;;;;3.85;2.60;;;20.80;99.90;;;;;;5042232;28;20040;-77
2022/06/14 12:58:12;;;;;;;4.15;2.75;;;20.80;99.90;;;;;;5035266;28;20076;-78
2022/06/14 13:00:44;;;;;;;5.18;2.97;;;20.60;99.90;;;;;;5043172;28;20048;-78
2022/06/14 13:03:26;;;;;;;10.70;3.33;;;20.70;99.90;;;;;;5041093;28;20049;-78
2022/06/14 13:05:57;;;;;;;5.05;2.75;;;20.70;99.90;;;;;;5042877;28;20061;-77
2022/06/14 13:08:40;;;;;;;7.73;2.93;;;20.50;99.90;;;;;;5036141;28;20148;-79
2022/06/14 13:11:15;;;;;;;10.05;4.38;;;20.40;99.90;;;;;;5023129;28;20604;-79
2022/06/14 13:14:07;;;;;;;8.43;4.53;;;20.10;99.90;;;;;;5041599;28;20470;-79
2022/06/14 13:16:59;;;;;;;11.63;4.70;;;19.70;99.90;;;;;;5040554;28;20061;-79
2022/06/14 13:19:34;;;;;;;12.38;4.63;;;19.40;99.90;;;;;;5029855;28;20533;-78
2022/06/14 13:22:18;;;;;;;9.73;4.38;;;19.00;99.90;;;;;;5042606;28;20041;-79
2022/06/14 13:25:00;;;;;;;14.27;3.83;;;18.80;99.90;;;;;;5076335;28;20084;-78
2022/06/14 13:27:39;;;;;;;8.38;3.95;;;18.70;99.90;;;;;;5030401;28;20107;-79
2022/06/14 13:30:15;;;;;;;7.38;3.85;;;18.40;99.90;;;;;;5012442;28;20056;-78
2022/06/14 13:33:01;;;;;;;10.63;4.22;;;18.30;99.90;;;;;;5032359;28;20053;-81
2022/06/14 13:35:47;;;;;;;6.45;3.45;;;18.20;99.90;;;;;;5047845;28;20198;-79
2022/06/14 13:38:25;;;;;;;6.30;3.47;;;18.00;99.90;;;;;;5040108;28;20473;-80
2022/06/14 13:40:57;;;;;;;5.68;3.85;;;17.90;99.90;;;;;;5041632;28;20421;-79
2022/06/14 13:43:35;;;;;;;6.45;3.83;;;17.80;99.90;;;;;;5042615;28;20050;-79